Mackenzie Airport
CYZY : now visible

Airfield :











YOU CAN JOIN US ON...

 
LOGIN :

Register | Disclaimer

   EN    FR    IT 

 









Legend :    VFR   Marginal VFR   IFR   Intensive IFR   Very Intensive IFR
Visi :
Ceiling :
>= 8 km
>= 3000ft
5 to 8 km
1000 to 3000 ft
1500m to 5 km
500 to 1000 ft
800 to 1500m
200 to 500 ft
< 800m
< 200 ft
Symbols :   Thunderstorms  Fog  Heavy snow  Heavy precipitations  Wind > 20 kt






- Airport Elevation : 2264 ft
- IATA code : YZY


CYZY - Mackenzie

CURRENT METAR :
  • 220400Z AUTO 14005KT 9SM OVC095 00/M04 A2979 RMK SLP124

EXPIRED METARs :
  • 220300Z AUTO 12004KT 110V170 9SM OVC110 00/M04 A2978 RMK SLP119
  • 220200Z AUTO 15006KT 9SM BKN130 BKN150 00/M04 A2979 RMK SLP123

TAF TAF CYZY
Valid from the 22 at 01:00 until the 22 at 09:00 UTC


220038Z 2201/2209 16008KT P6SM BKN100
FM220600 16008KT P6SM -SN SCT008 BKN050
TEMPO 2206/2209 2SM -SHSN VV008
PROB30 2206/2209 3/4SM -SHSN BR VV004 RMK FCST BASED ON AUTO OBS. NXT FCST BY 220700Z



MET'MAP, your aeronautical weather chart ! - Copyright ORBIFLY December 2007 - Disclaimer

ORBIFLY MET'MAP TEAM :

Programming & Development : Alexandra Zaïnal
Concept & Development : Baudouin d'Aumeries
Co-Development & Prog : Marc-Olivier Méhu
Technical & hardware support : Manuel Goepfert

Contact : metmap@orbifly.com




SOURCES & CREDITS :

   NOAA       Earth
Advisory